Redding, CT (06896)

7:17 AM EDT on September 02, 2015 (GMT -0400)
Redding | | Change Station
CLOSE
Current Station
Personal Weather Station
Location: Redding, CT
Elevation: 768 ft
Nearby Weather Stations
Active Advisory: Special Statement Active Notice: Record Report

Elev 768 ft 41.32 °N, 73.39 °W | Updated 12 minutes ago

Clear
Clear
64.2 °F
Feels Like 64.2 °F
N
0.0
Wind Variable Wind from NNW

Today
High -- | Low -- °F
--% Chance of Precip.
Yesterday
High -- | Low -- °F
Precip. -- in
6:20 AM 7:25 PM
Waning Gibbous, 81% visible
Pressure 30.05 in
Visibility 4.0 miles
Clouds Clear
Dew Point 64 °F
Humidity 98%
Rainfall 0.00 in
Snow Depth Not available.
UV 0 out of 12
Pollen 9.00 out of 12
Air Quality Not available.
Flu Activity Not available.
METAR KDXR 021053Z 00000KT 4SM BR CLR 16/14 A3006 RMK AO2 SLP174 T01610139
Pressure 30.05 in
Visibility 4.0 miles
Clouds Clear
Dew Point 64 °F
Humidity 98%
Rainfall 0.00 in
Snow Depth Not available.
UV 0 out of 12
Pollen 9.00 out of 12
Air Quality Not available.
Flu Activity Not available.
METAR KDXR 021053Z 00000KT 4SM BR CLR 16/14 A3006 RMK AO2 SLP174 T01610139

10-Day Weather Forecast

×

Almanac

Astronomy

Sep. 02, 2015 Rise Set
Actual Time
Civil Twilight
Nautical Twilight
Astronomical Twilight
Moon
Length of Visible Light
Length of Day
Tomorrow will be .
, % of the Moon is Illuminated

Today's Extremes

State Highs State Lows

Community

WunderPhotos

Upload Photos

1,851,736 photos uploaded!

WunderBlogs® & News

Nearby

Air Quality

  Air Quality AQ Index Pollutant
Not available.

Snow Depth

Station Depth Elevation

Earthquake Activity

City Distance Mag. Time & Date
Minimum magnitude displayed is 2.5.

Coastal Water Temperatures

Place Temperature

Stations

Nearby Weather Stations

Station Location Temp. Windchill Dew Point Humidity Wind Precip. Elev Updated Type
                   
Special Statement
Statement as of 5:20 AM EDT on September 02, 2015

... Patchy dense fog until 8 am...

Clear skies and calm winds will cause areas of fog until around 8
am.

A few patches of dense fog may briefly restrict visibility to 1/4
mile or less.

Motorists should exercise extra caution while driving through
early morning fog.



520 am EDT Wed Sep 2 2015

... Patchy dense fog until 8 am...

Clear skies and calm winds will cause areas of fog until around 8
am.

A few patches of dense fog may briefly restrict visibility to 1/4
mile or less.

Motorists should exercise extra caution while driving through
early morning fog.


520 am EDT Wed Sep 2 2015

... Patchy dense fog until 8 am...

Clear skies and calm winds will cause areas of fog until around 8
am.

A few patches of dense fog may briefly restrict visibility to 1/4
mile or less.

Motorists should exercise extra caution while driving through
early morning fog.